createdAt,value
2017-11-09T00:01:30.383Z,0
2017-11-09T00:02:10.873Z,0
2017-11-09T00:02:51.355Z,0
2017-11-09T00:03:31.841Z,0
2017-11-09T00:04:12.319Z,0
2017-11-09T00:04:52.794Z,0
2017-11-09T00:05:33.289Z,0
2017-11-09T00:06:13.769Z,0
2017-11-09T00:06:54.255Z,0
2017-11-09T00:07:34.757Z,0
2017-11-09T00:08:15.220Z,0
2017-11-09T00:08:55.708Z,0
2017-11-09T00:09:36.187Z,0
2017-11-09T00:10:16.673Z,0
2017-11-09T00:10:57.155Z,0
2017-11-09T00:11:37.651Z,0
2017-11-09T00:12:18.130Z,0
2017-11-09T00:12:58.636Z,0
2017-11-09T00:13:39.115Z,0
2017-11-09T00:14:19.605Z,0
2017-11-09T00:15:00.068Z,0
2017-11-09T00:15:40.570Z,0
2017-11-09T00:16:21.059Z,0
2017-11-09T00:17:01.552Z,0
2017-11-09T00:17:42.050Z,0
2017-11-09T00:18:22.557Z,0
2017-11-09T00:19:03.049Z,0
2017-11-09T00:19:43.548Z,0
2017-11-09T00:20:24.036Z,0
2017-11-09T00:21:04.528Z,0
2017-11-09T00:21:44.992Z,0
2017-11-09T00:22:25.486Z,0
2017-11-09T00:23:05.972Z,0
2017-11-09T00:23:46.459Z,0
2017-11-09T00:24:26.945Z,0
2017-11-09T00:25:07.437Z,0
2017-11-09T00:25:47.931Z,0
2017-11-09T00:26:28.420Z,0
2017-11-09T00:27:08.903Z,0
2017-11-09T00:27:49.383Z,0
2017-11-09T00:28:29.865Z,0
2017-11-09T00:29:10.337Z,0
2017-11-09T00:29:50.836Z,0
2017-11-09T00:30:31.318Z,0
2017-11-09T00:31:11.839Z,0
2017-11-09T00:31:52.316Z,0
2017-11-09T00:32:32.804Z,0
2017-11-09T00:33:13.274Z,0
2017-11-09T00:33:53.744Z,0
2017-11-09T00:34:34.206Z,0
2017-11-09T00:35:14.697Z,0
2017-11-09T00:35:55.190Z,0
2017-11-09T00:36:35.668Z,0
2017-11-09T00:37:16.157Z,0
2017-11-09T00:37:56.645Z,0
2017-11-09T00:38:37.143Z,0
2017-11-09T00:39:17.618Z,0
2017-11-09T00:39:58.122Z,0
2017-11-09T00:40:38.596Z,0
2017-11-09T00:41:19.073Z,0
2017-11-09T00:41:59.574Z,0
2017-11-09T00:42:40.049Z,0
2017-11-09T00:43:20.499Z,0
2017-11-09T00:44:00.987Z,0
2017-11-09T00:44:41.468Z,0
2017-11-09T00:45:21.970Z,0
2017-11-09T00:46:02.397Z,0
2017-11-09T00:46:42.887Z,0
2017-11-09T00:47:23.383Z,0
2017-11-09T00:48:03.844Z,0
2017-11-09T00:48:44.328Z,0
2017-11-09T00:49:24.816Z,0
2017-11-09T00:50:05.304Z,0
2017-11-09T00:50:45.800Z,0
2017-11-09T00:51:26.292Z,0
2017-11-09T00:52:06.790Z,0
2017-11-09T00:52:47.275Z,0
2017-11-09T00:53:27.771Z,0
2017-11-09T00:54:08.276Z,0
2017-11-09T00:54:48.741Z,0
2017-11-09T00:55:29.226Z,0
2017-11-09T00:56:09.719Z,0
2017-11-09T00:56:50.197Z,0
2017-11-09T00:57:30.658Z,0
2017-11-09T00:58:11.143Z,0
2017-11-09T00:58:51.640Z,0
2017-11-09T00:59:32.130Z,0
2017-11-09T01:00:12.613Z,0
2017-11-09T01:00:53.116Z,0
2017-11-09T01:01:33.607Z,0
2017-11-09T01:02:14.184Z,0
2017-11-09T01:02:54.740Z,0
2017-11-09T01:03:35.205Z,0
2017-11-09T01:04:15.697Z,0
2017-11-09T01:04:56.195Z,0
2017-11-09T01:05:36.679Z,0
2017-11-09T01:06:17.161Z,0
2017-11-09T01:06:57.637Z,0
2017-11-09T01:07:38.181Z,0
2017-11-09T01:08:18.658Z,0
2017-11-09T01:08:59.147Z,0
2017-11-09T01:09:39.630Z,0
2017-11-09T01:10:20.112Z,0
2017-11-09T01:11:00.605Z,0
2017-11-09T01:11:41.079Z,0
2017-11-09T01:12:21.563Z,0
2017-11-09T01:13:02.048Z,0
2017-11-09T01:13:42.542Z,0
2017-11-09T01:14:23.031Z,0
2017-11-09T01:15:03.515Z,0
2017-11-09T01:15:44.011Z,0
2017-11-09T01:16:24.491Z,0
2017-11-09T01:17:04.977Z,0
2017-11-09T01:17:45.469Z,0
2017-11-09T01:18:25.940Z,0
2017-11-09T01:19:06.381Z,0
2017-11-09T01:19:46.834Z,0
2017-11-09T01:20:27.338Z,0
2017-11-09T01:21:07.816Z,0
2017-11-09T01:21:48.312Z,0
2017-11-09T01:22:28.805Z,0
2017-11-09T01:23:09.300Z,0
2017-11-09T01:23:49.773Z,0
2017-11-09T01:24:30.258Z,0
2017-11-09T01:25:10.742Z,0
2017-11-09T01:25:51.233Z,0
2017-11-09T01:26:31.708Z,0
2017-11-09T01:27:12.198Z,0
2017-11-09T01:27:52.685Z,0
2017-11-09T01:28:33.180Z,0
2017-11-09T01:29:13.647Z,0
2017-11-09T01:29:54.152Z,0
2017-11-09T01:30:34.644Z,0
2017-11-09T01:31:15.125Z,0
2017-11-09T01:31:55.601Z,0
2017-11-09T01:32:36.093Z,0
2017-11-09T01:33:16.587Z,0
2017-11-09T01:33:57.061Z,0
2017-11-09T01:34:37.556Z,0
2017-11-09T01:35:18.053Z,0
2017-11-09T01:35:58.539Z,0
2017-11-09T01:36:39.032Z,0
2017-11-09T01:37:19.511Z,0
2017-11-09T01:38:00.004Z,0
2017-11-09T01:38:40.488Z,0
2017-11-09T01:39:20.977Z,0
2017-11-09T01:40:01.474Z,0
2017-11-09T01:40:41.956Z,0
2017-11-09T01:41:22.440Z,0
2017-11-09T01:42:02.943Z,0
2017-11-09T01:42:43.421Z,0
2017-11-09T01:43:23.915Z,0
2017-11-09T01:44:04.385Z,0
2017-11-09T01:44:44.816Z,0
2017-11-09T01:45:25.270Z,0
2017-11-09T01:46:05.729Z,0
2017-11-09T01:46:46.177Z,0
2017-11-09T01:47:26.632Z,0
2017-11-09T01:48:07.069Z,0
2017-11-09T01:50:45.121Z,0
2017-11-09T01:51:25.605Z,0
2017-11-09T01:52:06.101Z,0
2017-11-09T01:52:46.585Z,0
2017-11-09T01:53:27.074Z,0
2017-11-09T01:54:07.550Z,0
2017-11-09T01:54:48.036Z,0
2017-11-09T01:55:28.519Z,0
2017-11-09T01:56:08.995Z,0
2017-11-09T01:56:49.480Z,0
2017-11-09T01:57:29.977Z,0
2017-11-09T01:58:10.446Z,0
2017-11-09T01:58:50.908Z,0
2017-11-09T01:59:31.406Z,0
2017-11-09T02:00:11.881Z,0
2017-11-09T02:00:52.364Z,0
2017-11-09T02:01:32.854Z,0
2017-11-09T02:02:13.341Z,0
2017-11-09T02:02:53.826Z,0
2017-11-09T02:03:34.315Z,0
2017-11-09T02:04:14.802Z,0
2017-11-09T02:04:55.285Z,0
2017-11-09T02:05:35.764Z,0
2017-11-09T02:06:16.265Z,0
2017-11-09T02:06:56.761Z,0
2017-11-09T02:07:37.348Z,0
2017-11-09T02:08:17.846Z,0
2017-11-09T02:08:58.357Z,0
2017-11-09T02:09:38.833Z,0
2017-11-09T02:10:19.322Z,0
2017-11-09T02:10:59.808Z,0
2017-11-09T02:11:40.292Z,0
2017-11-09T02:12:20.790Z,0
2017-11-09T02:13:01.275Z,0
2017-11-09T02:13:41.765Z,0
2017-11-09T02:14:22.246Z,0
2017-11-09T02:15:02.752Z,0
2017-11-09T02:15:43.234Z,0
2017-11-09T02:16:23.727Z,0
2017-11-09T02:17:04.213Z,0
2017-11-09T02:17:44.699Z,0
2017-11-09T02:18:25.185Z,0
2017-11-09T02:19:05.668Z,0
2017-11-09T02:19:46.156Z,0
2017-11-09T02:20:26.647Z,0
2017-11-09T02:21:07.101Z,0
2017-11-09T02:21:47.613Z,0
2017-11-09T02:22:28.087Z,0
2017-11-09T02:23:08.561Z,0
2017-11-09T02:23:49.051Z,0
2017-11-09T02:24:29.535Z,0
2017-11-09T02:25:10.032Z,0
2017-11-09T02:25:50.504Z,0
2017-11-09T02:26:30.968Z,0
2017-11-09T02:27:11.471Z,0
2017-11-09T02:27:51.952Z,0
2017-11-09T02:28:32.392Z,0
2017-11-09T02:29:12.865Z,0
2017-11-09T02:29:53.347Z,0
2017-11-09T02:30:33.829Z,0
2017-11-09T02:31:14.319Z,0
2017-11-09T02:31:54.828Z,0
2017-11-09T02:32:35.312Z,0
2017-11-09T02:33:15.794Z,0
2017-11-09T02:33:56.288Z,0
2017-11-09T02:34:36.776Z,0
2017-11-09T02:35:17.246Z,0
2017-11-09T02:35:57.744Z,0
2017-11-09T02:36:38.219Z,0
2017-11-09T02:37:18.697Z,0
2017-11-09T02:37:59.197Z,0
2017-11-09T02:38:39.710Z,0
2017-11-09T02:39:20.185Z,0
2017-11-09T02:40:00.666Z,0
2017-11-09T02:40:41.152Z,0
2017-11-09T02:41:21.648Z,0
2017-11-09T02:42:02.117Z,0
2017-11-09T02:42:42.587Z,0
2017-11-09T02:43:23.052Z,0
2017-11-09T02:44:03.542Z,0
2017-11-09T02:44:44.040Z,0
2017-11-09T02:45:24.519Z,0
2017-11-09T02:46:04.990Z,0
2017-11-09T02:46:45.471Z,0
2017-11-09T02:47:25.970Z,0
2017-11-09T02:48:06.479Z,0
2017-11-09T02:48:46.979Z,0
2017-11-09T02:49:27.464Z,0
2017-11-09T02:50:07.948Z,0
2017-11-09T02:50:48.405Z,0
2017-11-09T02:51:28.904Z,0
2017-11-09T02:52:09.392Z,0
2017-11-09T02:52:49.878Z,0
2017-11-09T02:53:30.362Z,0
2017-11-09T02:54:10.825Z,0
2017-11-09T02:54:51.298Z,0
2017-11-09T02:55:31.791Z,0
2017-11-09T02:56:12.265Z,0
2017-11-09T02:56:52.757Z,0
2017-11-09T02:57:33.255Z,0
2017-11-09T02:58:13.728Z,0
2017-11-09T02:58:54.218Z,0
2017-11-09T02:59:34.721Z,0
2017-11-09T03:00:15.213Z,0
2017-11-09T03:00:55.690Z,0
2017-11-09T03:01:36.173Z,0
2017-11-09T03:02:16.670Z,0
2017-11-09T03:02:57.151Z,0
2017-11-09T03:03:37.651Z,0
2017-11-09T03:04:18.124Z,0
2017-11-09T03:04:58.606Z,0
2017-11-09T03:05:39.071Z,0
2017-11-09T03:06:19.527Z,0
2017-11-09T03:07:00.001Z,0
2017-11-09T03:07:40.485Z,0
2017-11-09T03:08:20.974Z,0
2017-11-09T03:09:01.460Z,0
2017-11-09T03:09:41.947Z,0
2017-11-09T03:10:22.412Z,0
2017-11-09T03:11:02.905Z,0
2017-11-09T03:11:43.415Z,0
2017-11-09T03:12:24.000Z,0
2017-11-09T03:13:04.666Z,0
2017-11-09T03:13:45.285Z,0
2017-11-09T03:14:25.940Z,0
2017-11-09T03:15:06.609Z,0
2017-11-09T03:15:47.217Z,0
2017-11-09T03:16:27.859Z,0
2017-11-09T03:17:08.514Z,0
2017-11-09T03:17:49.138Z,0
2017-11-09T03:18:29.794Z,0
2017-11-09T03:19:10.431Z,0
2017-11-09T03:19:50.878Z,0
2017-11-09T03:22:03.651Z,0
2017-11-09T03:22:44.097Z,0
2017-11-09T03:23:24.581Z,0
2017-11-09T03:24:05.065Z,0
2017-11-09T03:24:45.508Z,0
2017-11-09T03:25:25.953Z,0
2017-11-09T03:26:06.407Z,0
2017-11-09T03:26:46.829Z,0
2017-11-09T03:27:27.287Z,0
2017-11-09T03:28:07.813Z,0
2017-11-09T03:28:48.279Z,0
2017-11-09T03:29:28.745Z,0
2017-11-09T03:31:41.500Z,0
2017-11-09T03:32:21.963Z,0
2017-11-09T03:33:02.444Z,0
2017-11-09T03:33:42.925Z,0
2017-11-09T03:34:23.405Z,0
2017-11-09T03:35:03.883Z,0
2017-11-09T03:35:44.356Z,0
2017-11-09T03:36:24.841Z,0
2017-11-09T03:37:05.318Z,0
2017-11-09T03:37:45.765Z,0
2017-11-09T03:40:23.907Z,0
2017-11-09T03:41:04.314Z,0
2017-11-09T03:41:44.822Z,0
2017-11-09T03:42:25.274Z,0
2017-11-09T03:43:05.776Z,0
2017-11-09T03:43:46.250Z,0
2017-11-09T03:44:26.758Z,0
2017-11-09T03:45:07.219Z,0
2017-11-09T03:45:47.724Z,0
2017-11-09T03:46:28.195Z,0
2017-11-09T03:47:08.657Z,0
2017-11-09T03:47:49.144Z,0
2017-11-09T03:48:29.590Z,0
2017-11-09T03:49:10.111Z,0
2017-11-09T03:49:50.538Z,0
2017-11-09T03:50:31.038Z,0
2017-11-09T03:51:11.504Z,0
2017-11-09T03:53:44.514Z,0
2017-11-09T03:54:25.037Z,0
2017-11-09T03:55:05.571Z,0
2017-11-09T03:55:46.043Z,0
2017-11-09T03:56:26.521Z,0
2017-11-09T03:57:07.503Z,0
2017-11-09T03:57:47.957Z,0
2017-11-09T03:58:28.448Z,0
2017-11-09T03:59:08.941Z,0
2017-11-09T03:59:49.430Z,0
2017-11-09T04:00:29.866Z,0
2017-11-09T04:01:10.344Z,0
2017-11-09T04:03:38.288Z,0
2017-11-09T04:04:18.805Z,0
2017-11-09T04:04:59.197Z,0
2017-11-09T04:05:39.662Z,0
2017-11-09T04:06:20.125Z,0
2017-11-09T04:07:00.582Z,0
2017-11-09T04:07:41.061Z,0
2017-11-09T04:08:21.523Z,0
2017-11-09T04:09:01.959Z,0
2017-11-09T04:09:42.414Z,0
2017-11-09T04:10:22.865Z,0
2017-11-09T04:11:03.342Z,0
2017-11-09T04:11:43.762Z,0
2017-11-09T04:12:24.336Z,0
2017-11-09T04:13:04.752Z,0
2017-11-09T04:13:45.215Z,0
2017-11-09T04:14:25.670Z,0
2017-11-09T04:17:03.759Z,0
2017-11-09T04:17:44.195Z,0
2017-11-09T04:18:24.685Z,0
2017-11-09T04:19:05.162Z,0
2017-11-09T04:19:45.643Z,0
2017-11-09T04:20:26.171Z,0
2017-11-09T04:21:06.655Z,0
2017-11-09T04:21:47.182Z,0
2017-11-09T04:22:27.586Z,0
2017-11-09T04:23:08.092Z,0
2017-11-09T04:25:41.095Z,0
2017-11-09T04:26:21.615Z,0
2017-11-09T04:27:02.063Z,0
2017-11-09T04:27:42.552Z,0
2017-11-09T04:28:23.017Z,0
2017-11-09T04:30:56.065Z,0
2017-11-09T04:31:36.554Z,0
2017-11-09T04:32:17.014Z,0
2017-11-09T04:32:57.525Z,0
2017-11-09T04:33:37.980Z,0
2017-11-09T04:34:18.420Z,0
2017-11-09T04:34:58.909Z,0
2017-11-09T04:35:39.421Z,0
2017-11-09T04:36:19.961Z,0
2017-11-09T04:37:00.448Z,0
2017-11-09T04:37:40.929Z,0
2017-11-09T04:38:21.434Z,0
2017-11-09T04:39:01.922Z,0
2017-11-09T04:39:42.372Z,0
2017-11-09T04:40:22.876Z,0
2017-11-09T04:41:03.380Z,0
2017-11-09T04:41:43.883Z,0
2017-11-09T04:42:24.360Z,0
2017-11-09T04:43:04.852Z,0
2017-11-09T04:43:45.335Z,0
2017-11-09T04:44:25.824Z,0
2017-11-09T04:45:06.328Z,0
2017-11-09T04:45:46.800Z,0
2017-11-09T04:46:27.245Z,0
2017-11-09T04:47:07.708Z,0
2017-11-09T04:47:48.180Z,0
2017-11-09T04:48:28.664Z,0
2017-11-09T04:49:09.131Z,0
2017-11-09T04:49:49.611Z,0
2017-11-09T04:52:22.643Z,0
2017-11-09T04:53:03.121Z,0
2017-11-09T04:53:43.561Z,0
2017-11-09T04:54:24.020Z,0
2017-11-09T04:55:04.460Z,0
2017-11-09T04:55:44.873Z,0
2017-11-09T04:56:25.342Z,0
2017-11-09T04:57:05.768Z,0
2017-11-09T04:57:46.204Z,0
2017-11-09T05:00:14.235Z,0
2017-11-09T05:00:54.625Z,0
2017-11-09T05:01:35.089Z,0
2017-11-09T05:02:15.582Z,0
2017-11-09T05:02:56.062Z,0
2017-11-09T05:03:36.571Z,0
2017-11-09T05:04:17.064Z,0
2017-11-09T05:04:57.550Z,0
2017-11-09T05:05:38.013Z,0
2017-11-09T05:06:18.534Z,0
2017-11-09T05:06:58.951Z,0
2017-11-09T05:07:39.397Z,0
2017-11-09T05:08:19.856Z,0
2017-11-09T05:09:00.278Z,0
2017-11-09T05:09:40.731Z,0
2017-11-09T05:10:21.227Z,0
2017-11-09T05:11:01.641Z,0
2017-11-09T05:11:42.161Z,0
2017-11-09T05:12:22.607Z,0
2017-11-09T05:13:03.036Z,0
2017-11-09T05:13:43.512Z,0
2017-11-09T05:14:23.942Z,0
2017-11-09T05:15:04.355Z,0
2017-11-09T05:15:44.828Z,0
2017-11-09T05:16:25.314Z,0
2017-11-09T05:17:05.786Z,0
2017-11-09T05:17:46.282Z,0
2017-11-09T05:18:27.356Z,0
2017-11-09T05:19:07.825Z,0
2017-11-09T05:19:48.299Z,0
2017-11-09T05:20:28.756Z,0
2017-11-09T05:22:56.679Z,0
2017-11-09T05:23:37.148Z,0
2017-11-09T05:24:17.627Z,0
2017-11-09T05:24:58.132Z,0
2017-11-09T05:25:38.625Z,0
2017-11-09T05:28:06.580Z,0
2017-11-09T05:28:47.015Z,0
2017-11-09T05:29:27.439Z,0
2017-11-09T05:32:00.539Z,0
2017-11-09T05:32:41.153Z,0
2017-11-09T05:33:21.652Z,0
2017-11-09T05:34:02.134Z,0
2017-11-09T05:34:42.610Z,0
2017-11-09T05:35:23.102Z,0
2017-11-09T05:36:03.595Z,0
2017-11-09T05:36:44.064Z,0
2017-11-09T05:37:24.550Z,0
2017-11-09T05:38:05.030Z,0
2017-11-09T05:38:45.492Z,0
2017-11-09T05:39:25.961Z,0
2017-11-09T05:40:06.433Z,0
2017-11-09T05:40:46.906Z,0
2017-11-09T05:41:27.337Z,0
2017-11-09T05:42:07.803Z,0
2017-11-09T05:42:48.257Z,0
2017-11-09T05:43:28.687Z,0
2017-11-09T05:44:09.195Z,0
2017-11-09T05:46:26.962Z,0
2017-11-09T05:47:07.436Z,0
2017-11-09T05:47:47.914Z,0
2017-11-09T05:48:28.392Z,0
2017-11-09T05:49:08.829Z,0
2017-11-09T05:49:49.258Z,0
2017-11-09T05:50:29.707Z,0
2017-11-09T05:51:10.195Z,0
2017-11-09T05:51:50.649Z,0
2017-11-09T05:52:31.169Z,0
2017-11-09T05:53:11.631Z,0
2017-11-09T05:55:50.524Z,0
2017-11-09T05:56:30.972Z,0
2017-11-09T05:57:11.493Z,0
2017-11-09T05:57:51.965Z,0
2017-11-09T05:58:32.436Z,0
2017-11-09T05:59:14.048Z,0
2017-11-09T05:59:54.720Z,0
2017-11-09T06:00:35.367Z,0
2017-11-09T06:01:15.956Z,0
2017-11-09T06:01:56.541Z,0
2017-11-09T06:02:37.164Z,0
2017-11-09T06:03:17.709Z,0
2017-11-09T06:03:58.310Z,0
2017-11-09T06:04:38.949Z,0
2017-11-09T06:05:19.556Z,0
2017-11-09T06:06:00.167Z,0
2017-11-09T06:06:40.882Z,0
2017-11-09T06:07:21.583Z,0
2017-11-09T06:08:02.289Z,0
2017-11-09T06:08:42.928Z,0
2017-11-09T06:09:23.500Z,0
2017-11-09T06:10:04.112Z,0
2017-11-09T06:10:44.748Z,0
2017-11-09T06:11:25.315Z,0
2017-11-09T06:12:05.940Z,0
2017-11-09T06:12:46.583Z,0
2017-11-09T06:13:28.132Z,0
2017-11-09T06:14:08.759Z,0
2017-11-09T06:14:49.352Z,0
2017-11-09T06:15:30.011Z,0
2017-11-09T06:16:10.657Z,0
2017-11-09T06:16:51.293Z,0
2017-11-09T06:17:31.957Z,0
2017-11-09T06:18:12.567Z,0
2017-11-09T06:18:53.208Z,0
2017-11-09T06:19:33.855Z,0
2017-11-09T06:20:14.470Z,0
2017-11-09T06:20:55.034Z,0
2017-11-09T06:21:35.552Z,0
2017-11-09T06:22:15.998Z,0
2017-11-09T06:24:54.082Z,0
2017-11-09T06:25:34.590Z,0
2017-11-09T06:26:15.068Z,0
2017-11-09T06:26:55.543Z,0
2017-11-09T06:27:36.018Z,0
2017-11-09T06:28:16.515Z,0
2017-11-09T06:28:57.011Z,0
2017-11-09T06:29:37.540Z,0
2017-11-09T06:30:18.201Z,0
2017-11-09T06:30:58.807Z,0
2017-11-09T06:31:39.323Z,0
2017-11-09T06:32:19.820Z,0
2017-11-09T06:33:00.232Z,0
2017-11-09T06:33:40.726Z,0
2017-11-09T06:36:08.758Z,0
2017-11-09T06:36:49.408Z,0
2017-11-09T06:37:30.065Z,0
2017-11-09T06:38:10.743Z,0
2017-11-09T06:38:51.393Z,0
2017-11-09T06:39:32.032Z,0
2017-11-09T06:40:12.662Z,0
2017-11-09T06:40:53.254Z,0
2017-11-09T06:41:33.828Z,0
2017-11-09T06:42:14.399Z,0
2017-11-09T06:42:55.020Z,0
2017-11-09T06:43:35.737Z,0
2017-11-09T06:44:16.329Z,0
2017-11-09T06:44:56.867Z,0
2017-11-09T06:45:37.333Z,0
2017-11-09T06:46:17.820Z,0
2017-11-09T06:46:58.313Z,0
2017-11-09T06:47:38.813Z,0
2017-11-09T06:48:19.342Z,0
2017-11-09T06:48:59.852Z,0
2017-11-09T06:49:40.382Z,0
2017-11-09T06:50:20.915Z,0
2017-11-09T06:51:01.479Z,0
2017-11-09T06:51:41.986Z,0
2017-11-09T06:52:22.468Z,0
2017-11-09T06:53:02.956Z,0
2017-11-09T06:53:43.501Z,0
2017-11-09T06:54:24.013Z,5
2017-11-09T06:55:04.532Z,5
2017-11-09T06:55:45.115Z,5
2017-11-09T06:56:25.660Z,5
2017-11-09T06:57:06.208Z,5
2017-11-09T06:57:46.695Z,5
2017-11-09T06:58:27.196Z,5
2017-11-09T06:59:07.666Z,5
2017-11-09T06:59:48.428Z,5
2017-11-09T07:00:28.910Z,5
2017-11-09T07:01:09.397Z,5
2017-11-09T07:01:49.891Z,5
2017-11-09T07:02:30.382Z,5
2017-11-09T07:03:10.845Z,10
2017-11-09T07:03:51.306Z,10
2017-11-09T07:04:31.753Z,10
2017-11-09T07:05:12.250Z,10
2017-11-09T07:05:52.872Z,10
2017-11-09T07:06:33.286Z,10
2017-11-09T07:07:13.801Z,10
2017-11-09T07:07:54.288Z,10
2017-11-09T07:08:34.789Z,10
2017-11-09T07:09:15.287Z,10
2017-11-09T07:09:55.763Z,15
2017-11-09T07:10:36.253Z,15
2017-11-09T07:11:16.748Z,10
2017-11-09T07:11:57.209Z,15
2017-11-09T07:12:37.662Z,15
2017-11-09T07:13:18.138Z,15
2017-11-09T07:13:58.621Z,15
2017-11-09T07:14:39.107Z,15
2017-11-09T07:15:19.582Z,15
2017-11-09T07:16:00.057Z,15
2017-11-09T07:16:40.552Z,15
2017-11-09T07:17:21.034Z,15
2017-11-09T07:18:01.574Z,15
2017-11-09T07:18:42.051Z,15
2017-11-09T07:19:22.535Z,15
2017-11-09T07:20:02.956Z,15
2017-11-09T07:20:43.429Z,15
2017-11-09T07:21:23.872Z,15
2017-11-09T07:22:04.366Z,15
2017-11-09T07:22:44.851Z,15
2017-11-09T07:23:25.365Z,15
2017-11-09T07:24:05.899Z,15
2017-11-09T07:24:46.382Z,15
2017-11-09T07:25:26.862Z,15
2017-11-09T07:26:07.359Z,15
2017-11-09T07:26:47.864Z,15
2017-11-09T07:27:28.340Z,15
2017-11-09T07:28:08.840Z,15
2017-11-09T07:28:49.338Z,15
2017-11-09T07:29:29.835Z,15
2017-11-09T07:30:10.331Z,15
2017-11-09T07:30:50.845Z,15
2017-11-09T07:31:31.306Z,15
2017-11-09T07:32:11.757Z,15
2017-11-09T07:32:52.233Z,15
2017-11-09T07:33:32.700Z,15
2017-11-09T07:34:13.190Z,15
2017-11-09T07:34:53.686Z,15
2017-11-09T07:35:34.165Z,15
2017-11-09T07:36:14.738Z,15
2017-11-09T07:36:55.221Z,15
2017-11-09T07:37:35.711Z,15
2017-11-09T07:38:16.193Z,15
2017-11-09T07:38:56.660Z,15
2017-11-09T07:39:37.175Z,20
2017-11-09T07:40:17.662Z,20
2017-11-09T07:40:58.154Z,20
2017-11-09T07:41:38.635Z,20
2017-11-09T07:42:19.111Z,20
2017-11-09T07:42:59.609Z,20
2017-11-09T07:43:40.106Z,20
2017-11-09T07:44:20.592Z,25
2017-11-09T07:45:01.081Z,25
2017-11-09T07:45:41.585Z,25
2017-11-09T07:46:22.077Z,25
2017-11-09T07:47:02.568Z,25
2017-11-09T07:47:43.109Z,25
2017-11-09T07:48:23.584Z,25
2017-11-09T07:49:04.106Z,30
2017-11-09T07:49:44.590Z,30
2017-11-09T07:50:25.067Z,25
2017-11-09T07:51:05.560Z,30
2017-11-09T07:51:46.052Z,30
2017-11-09T07:52:26.527Z,30
2017-11-09T07:53:07.024Z,30
2017-11-09T07:53:47.517Z,30
2017-11-09T07:54:28.011Z,30
2017-11-09T07:55:08.498Z,30
2017-11-09T07:55:48.995Z,30
2017-11-09T07:56:29.484Z,30
2017-11-09T07:57:09.969Z,30
2017-11-09T07:57:50.446Z,30
2017-11-09T08:00:03.230Z,30
2017-11-09T08:00:43.706Z,30
2017-11-09T08:01:24.194Z,30
2017-11-09T08:02:04.663Z,30
2017-11-09T08:02:45.217Z,30
2017-11-09T08:03:25.688Z,30
2017-11-09T08:04:06.168Z,35
2017-11-09T08:04:46.663Z,35
2017-11-09T08:05:27.144Z,35
2017-11-09T08:06:07.652Z,35
2017-11-09T08:06:48.161Z,35
2017-11-09T08:07:28.652Z,35
2017-11-09T08:08:09.168Z,35
2017-11-09T08:08:49.681Z,40
2017-11-09T08:09:30.168Z,35
2017-11-09T08:10:10.735Z,40
2017-11-09T08:10:51.296Z,40
2017-11-09T08:11:31.764Z,40
2017-11-09T08:12:12.275Z,35
2017-11-09T08:12:52.748Z,40
2017-11-09T08:13:33.230Z,35
2017-11-09T08:14:13.714Z,35
2017-11-09T08:14:54.217Z,35
2017-11-09T08:15:34.702Z,35
2017-11-09T08:16:15.193Z,35
2017-11-09T08:16:55.689Z,35
2017-11-09T08:17:36.200Z,35
2017-11-09T08:18:16.708Z,30
2017-11-09T08:18:57.182Z,30
2017-11-09T08:19:37.669Z,30
2017-11-09T08:20:18.154Z,30
2017-11-09T08:20:58.628Z,30
2017-11-09T08:21:39.104Z,30
2017-11-09T08:22:19.623Z,30
2017-11-09T08:23:00.119Z,30
2017-11-09T08:23:40.616Z,30
2017-11-09T08:24:21.083Z,35
2017-11-09T08:25:01.581Z,35
2017-11-09T08:25:42.078Z,35
2017-11-09T08:26:22.547Z,35
2017-11-09T08:27:03.025Z,40
2017-11-09T08:27:43.528Z,40
2017-11-09T08:28:24.037Z,40
2017-11-09T08:29:04.525Z,40
2017-11-09T08:29:45.018Z,45
2017-11-09T08:30:25.520Z,45
2017-11-09T08:31:06.014Z,45
2017-11-09T08:31:46.575Z,45
2017-11-09T08:32:27.089Z,45
2017-11-09T08:33:07.576Z,45
2017-11-09T08:33:48.055Z,45
2017-11-09T08:34:28.545Z,40
2017-11-09T08:35:09.043Z,40
2017-11-09T08:35:49.527Z,40
2017-11-09T08:36:30.019Z,40
2017-11-09T08:37:10.493Z,40
2017-11-09T08:37:50.981Z,40
2017-11-09T08:38:31.507Z,45
2017-11-09T08:39:11.997Z,45
2017-11-09T08:39:52.488Z,45
2017-11-09T08:40:32.985Z,50
2017-11-09T08:41:13.464Z,50
2017-11-09T08:44:07.093Z,45
2017-11-09T08:44:47.621Z,45
2017-11-09T08:45:28.121Z,45
2017-11-09T08:46:08.610Z,40
2017-11-09T08:46:49.097Z,40
2017-11-09T08:47:29.554Z,40
2017-11-09T08:48:10.055Z,35
2017-11-09T08:48:50.533Z,35
2017-11-09T08:49:31.019Z,40
2017-11-09T08:51:48.856Z,40
2017-11-09T08:52:29.366Z,40
2017-11-09T08:53:09.846Z,40
2017-11-09T08:53:50.339Z,40
2017-11-09T08:54:30.821Z,40
2017-11-09T08:55:11.320Z,45
2017-11-09T08:55:51.831Z,45
2017-11-09T08:56:32.330Z,45
2017-11-09T08:57:12.839Z,45
2017-11-09T08:57:53.325Z,45
2017-11-09T08:58:33.819Z,50
2017-11-09T08:59:14.302Z,50
2017-11-09T08:59:54.884Z,50
2017-11-09T09:00:35.322Z,50
2017-11-09T09:01:15.824Z,50
2017-11-09T09:01:56.335Z,50
2017-11-09T09:02:36.774Z,55
2017-11-09T09:03:17.292Z,55
2017-11-09T09:03:57.852Z,55
2017-11-09T09:04:38.398Z,55
2017-11-09T09:05:18.982Z,55
2017-11-09T09:05:59.474Z,60
2017-11-09T09:06:40.057Z,60
2017-11-09T09:07:20.549Z,60
2017-11-09T09:08:01.041Z,60
2017-11-09T09:08:41.540Z,65
2017-11-09T09:09:22.052Z,70
2017-11-09T09:10:03.666Z,75
2017-11-09T09:10:44.304Z,75
2017-11-09T09:11:24.967Z,75
2017-11-09T09:12:05.616Z,75
2017-11-09T09:12:46.233Z,80
2017-11-09T09:13:26.700Z,80
2017-11-09T09:14:07.344Z,80
2017-11-09T09:14:48.012Z,80
2017-11-09T09:15:28.613Z,75
2017-11-09T09:16:09.285Z,70
2017-11-09T09:16:49.970Z,80
2017-11-09T09:17:30.682Z,80
2017-11-09T09:18:11.335Z,80
2017-11-09T09:21:56.644Z,90
2017-11-09T09:22:37.305Z,90
2017-11-09T09:23:18.074Z,90
2017-11-09T09:23:58.737Z,95
2017-11-09T09:24:39.388Z,95
2017-11-09T09:25:20.045Z,95
2017-11-09T09:26:00.628Z,95
2017-11-09T09:26:41.207Z,100
2017-11-09T09:27:21.851Z,100
2017-11-09T09:28:02.416Z,100
2017-11-09T09:28:42.955Z,100
2017-11-09T09:29:23.555Z,100
2017-11-09T09:30:04.345Z,100
2017-11-09T09:30:45.015Z,100
2017-11-09T09:31:26.381Z,100
2017-11-09T09:32:07.012Z,95
2017-11-09T09:32:47.591Z,100
2017-11-09T09:33:28.240Z,95
2017-11-09T09:34:08.815Z,95
2017-11-09T09:34:49.464Z,100
2017-11-09T09:35:30.183Z,95
2017-11-09T09:36:10.788Z,95
2017-11-09T09:36:51.497Z,90
2017-11-09T09:37:32.137Z,90
2017-11-09T09:38:12.773Z,85
2017-11-09T09:38:53.375Z,80
2017-11-09T09:39:34.012Z,85
2017-11-09T09:40:14.562Z,90
2017-11-09T09:40:55.011Z,95
2017-11-09T09:41:35.447Z,95
2017-11-09T09:42:15.911Z,95
2017-11-09T09:42:56.528Z,90
2017-11-09T09:43:37.074Z,95
2017-11-09T09:44:17.689Z,105
2017-11-09T09:44:58.292Z,95
2017-11-09T09:45:38.939Z,95
2017-11-09T09:46:19.518Z,100
2017-11-09T09:47:00.077Z,105
2017-11-09T09:47:40.537Z,100
2017-11-09T09:50:13.578Z,95
2017-11-09T09:50:54.076Z,95
2017-11-09T09:51:34.609Z,95
2017-11-09T09:52:15.097Z,95
2017-11-09T09:52:55.607Z,95
2017-11-09T09:53:36.148Z,100
2017-11-09T09:54:16.619Z,95
2017-11-09T09:54:57.134Z,100
2017-11-09T09:55:37.611Z,95
2017-11-09T09:56:18.130Z,95
2017-11-09T09:56:58.612Z,95
2017-11-09T09:57:39.103Z,95
2017-11-09T09:58:19.578Z,95
2017-11-09T09:59:00.064Z,95
2017-11-09T09:59:40.590Z,90
2017-11-09T10:00:21.067Z,85
2017-11-09T10:01:01.558Z,80
2017-11-09T10:01:42.053Z,85
2017-11-09T10:02:22.534Z,85
2017-11-09T10:03:02.997Z,80
2017-11-09T10:03:43.462Z,75
2017-11-09T10:04:23.918Z,75
2017-11-09T10:05:04.384Z,70
2017-11-09T10:05:44.885Z,70
2017-11-09T10:06:25.414Z,65
2017-11-09T10:07:05.930Z,60
2017-11-09T10:07:46.420Z,65
2017-11-09T10:08:26.917Z,65
2017-11-09T10:09:07.336Z,60
2017-11-09T10:09:47.809Z,55
2017-11-09T10:10:28.338Z,60
2017-11-09T10:11:08.787Z,65
2017-11-09T10:11:49.340Z,65
2017-11-09T10:12:29.816Z,65
2017-11-09T10:13:10.278Z,65
2017-11-09T10:13:50.749Z,70
2017-11-09T10:14:31.251Z,70
2017-11-09T10:15:11.745Z,75
2017-11-09T10:15:52.293Z,70
2017-11-09T10:16:32.863Z,65
2017-11-09T10:17:13.458Z,65
2017-11-09T10:17:54.123Z,70
2017-11-09T10:20:32.132Z,80
2017-11-09T10:21:12.673Z,80
2017-11-09T10:21:53.099Z,80
2017-11-09T10:22:33.630Z,80
2017-11-09T10:23:14.111Z,80
2017-11-09T10:23:54.714Z,85
2017-11-09T10:24:35.240Z,85
2017-11-09T10:25:15.815Z,85
2017-11-09T10:25:56.259Z,95
2017-11-09T10:26:36.773Z,100
2017-11-09T10:27:17.332Z,95
2017-11-09T10:27:57.820Z,100
2017-11-09T10:28:38.444Z,95
2017-11-09T10:29:18.967Z,100
2017-11-09T10:29:59.671Z,115
2017-11-09T10:30:40.144Z,115
2017-11-09T10:31:20.973Z,115
2017-11-09T10:32:01.415Z,110
2017-11-09T10:32:42.022Z,100
2017-11-09T10:33:23.078Z,105
2017-11-09T10:34:03.692Z,115
2017-11-09T10:34:44.570Z,135
2017-11-09T10:35:25.045Z,135
2017-11-09T10:36:05.492Z,120
2017-11-09T10:36:45.997Z,95
2017-11-09T10:37:26.485Z,95